createdAt,value
2022-12-20T05:59:01.080Z,85.40
2022-12-20T06:01:50.260Z,94.77
2022-12-20T06:04:39.474Z,79.43
2022-12-20T06:07:29.513Z,81.33
2022-12-20T06:10:18.361Z,82.80
2022-12-20T06:13:09.271Z,83.53
2022-12-20T06:16:00.590Z,86.70
2022-12-20T06:18:50.036Z,82.27
2022-12-20T06:21:39.172Z,87.87
2022-12-20T06:24:28.343Z,94.37
2022-12-20T06:27:18.701Z,98.07
2022-12-20T06:30:08.514Z,89.37
2022-12-20T06:32:58.835Z,91.83
2022-12-20T06:35:48.299Z,81.73
2022-12-20T06:38:36.878Z,88.27
2022-12-20T06:41:25.982Z,80.50
2022-12-20T06:44:15.470Z,81.20
2022-12-20T06:47:05.050Z,84.23
2022-12-20T06:49:55.484Z,75.87
2022-12-20T06:52:44.788Z,80.07
2022-12-20T06:55:34.515Z,83.10
2022-12-20T06:58:23.962Z,86.00
2022-12-20T07:01:13.295Z,86.43
2022-12-20T07:04:04.285Z,84.70
2022-12-20T07:06:54.910Z,88.30
2022-12-20T07:09:43.894Z,81.43
2022-12-20T07:12:33.974Z,81.60
2022-12-20T07:15:23.756Z,79.70
2022-12-20T07:18:14.967Z,89.57
2022-12-20T07:21:06.311Z,86.73
2022-12-20T07:23:56.581Z,80.17
2022-12-20T07:26:47.015Z,91.70
2022-12-20T07:29:36.260Z,85.30
2022-12-20T07:32:25.108Z,84.30
2022-12-20T07:35:16.199Z,97.37
2022-12-20T07:38:04.723Z,90.87
2022-12-20T07:40:55.680Z,92.43
2022-12-20T07:43:45.185Z,92.80
2022-12-20T07:46:34.855Z,88.70
2022-12-20T07:49:24.416Z,85.20
2022-12-20T07:52:16.083Z,90.17
2022-12-20T07:55:09.790Z,86.33
2022-12-20T07:58:03.778Z,91.57
2022-12-20T08:00:53.369Z,84.10
2022-12-20T08:03:46.046Z,87.03
2022-12-20T08:06:37.953Z,81.10
2022-12-20T08:09:30.040Z,88.30
2022-12-20T08:12:20.469Z,81.67
2022-12-20T08:15:13.366Z,85.97
2022-12-20T08:18:02.173Z,75.53
2022-12-20T08:20:52.087Z,76.13
2022-12-20T08:23:41.136Z,86.23
2022-12-20T08:26:30.421Z,84.00
2022-12-20T08:29:19.348Z,77.77
2022-12-20T08:32:10.513Z,70.70
2022-12-20T08:35:02.025Z,79.43
2022-12-20T08:37:52.730Z,84.73
2022-12-20T08:40:42.349Z,80.30
2022-12-20T08:43:31.872Z,76.23
2022-12-20T08:46:20.709Z,59.07
2022-12-20T08:49:11.556Z,70.40
2022-12-20T08:52:00.761Z,79.20
2022-12-20T08:54:49.980Z,85.53
2022-12-20T08:57:39.160Z,76.57
2022-12-20T09:00:28.087Z,79.87
2022-12-20T09:03:17.315Z,76.90
2022-12-20T09:06:10.048Z,70.83
2022-12-20T09:09:01.273Z,77.80
2022-12-20T09:11:50.966Z,76.57
2022-12-20T09:14:40.144Z,74.13
2022-12-20T09:17:30.103Z,78.07
2022-12-20T09:20:18.990Z,70.97
2022-12-20T09:23:09.420Z,74.37
2022-12-20T09:26:02.396Z,72.87
2022-12-20T09:28:52.772Z,73.43
2022-12-20T09:31:42.067Z,71.20
2022-12-20T09:34:31.394Z,72.87
2022-12-20T09:37:20.433Z,73.53
2022-12-20T09:40:19.560Z,64.27
2022-12-20T09:43:11.671Z,65.50
2022-12-20T09:46:01.878Z,76.13
2022-12-20T09:48:52.292Z,70.37
2022-12-20T09:51:59.595Z,71.80
2022-12-20T09:54:55.696Z,63.97
2022-12-20T09:57:58.129Z,67.97
2022-12-20T10:00:53.876Z,64.67
2022-12-20T10:03:44.014Z,73.97
2022-12-20T10:06:47.012Z,80.43
2022-12-20T10:09:51.913Z,74.70
2022-12-20T10:12:53.822Z,72.13
2022-12-20T10:15:48.561Z,71.20
2022-12-20T10:18:51.868Z,70.47
2022-12-20T10:21:49.035Z,69.03
2022-12-20T10:24:40.209Z,67.30
2022-12-20T10:27:29.379Z,76.30
2022-12-20T10:30:21.798Z,72.70
2022-12-20T10:33:18.445Z,75.50
2022-12-20T10:36:26.348Z,64.90
2022-12-20T10:39:15.599Z,76.90
2022-12-20T10:42:04.617Z,66.37
2022-12-20T10:44:54.355Z,68.33
2022-12-20T10:47:47.795Z,77.73
2022-12-20T10:50:36.655Z,71.83
2022-12-20T10:53:27.369Z,66.70
2022-12-20T10:56:22.443Z,64.30
2022-12-20T10:59:30.067Z,69.03
2022-12-20T11:02:36.738Z,73.20
2022-12-20T11:05:30.472Z,67.30
2022-12-20T11:08:37.749Z,69.73
2022-12-20T11:11:29.766Z,67.20
2022-12-20T11:14:22.549Z,69.40
2022-12-20T11:17:28.565Z,65.50
2022-12-20T11:20:36.809Z,68.73
2022-12-20T11:23:33.221Z,67.80
2022-12-20T11:26:41.745Z,64.80
2022-12-20T11:29:52.972Z,67.27
2022-12-20T11:33:29.342Z,63.97
2022-12-20T11:36:28.456Z,64.47
2022-12-20T11:39:29.522Z,70.73
2022-12-20T11:42:27.425Z,68.43
2022-12-20T11:45:25.525Z,66.00
2022-12-20T11:48:39.813Z,76.80
2022-12-20T11:51:38.434Z,67.07
2022-12-20T11:54:32.098Z,75.43
2022-12-20T11:57:28.237Z,69.53
2022-12-20T12:47:49.342Z,76.07
2022-12-20T12:50:40.519Z,68.40
2022-12-20T12:53:36.644Z,66.07
2022-12-20T12:56:46.872Z,72.70
2022-12-20T12:59:48.362Z,74.83
2022-12-20T13:02:53.378Z,70.80
2022-12-20T13:05:42.357Z,78.03
2022-12-20T13:08:50.787Z,71.10
2022-12-20T13:11:46.511Z,73.83
2022-12-20T13:14:52.673Z,81.97
2022-12-20T13:17:54.320Z,76.13
2022-12-20T13:20:43.431Z,72.30
2022-12-20T13:23:32.869Z,74.07
2022-12-20T13:26:53.239Z,84.40
2022-12-20T13:29:58.191Z,77.63
2022-12-20T13:33:22.930Z,77.67
2022-12-20T13:36:42.212Z,81.73
2022-12-20T13:39:35.239Z,83.73
2022-12-20T13:42:38.612Z,79.00
2022-12-20T13:45:27.900Z,82.20
2022-12-20T13:48:23.996Z,79.60
2022-12-20T13:51:16.915Z,75.80
2022-12-20T13:54:07.669Z,79.00
2022-12-20T13:56:57.204Z,79.93
2022-12-20T13:59:48.908Z,82.30
2022-12-20T14:02:43.784Z,77.80
2022-12-20T14:05:40.107Z,69.70
2022-12-20T14:08:32.336Z,72.57
2022-12-20T14:11:24.132Z,78.03
2022-12-20T14:14:15.397Z,81.77
2022-12-20T14:17:17.391Z,76.33
2022-12-20T14:20:13.692Z,64.07
2022-12-20T14:23:06.624Z,64.80
2022-12-20T14:25:58.260Z,64.23
2022-12-20T14:28:49.479Z,61.53
2022-12-20T14:31:40.772Z,63.03
2022-12-20T14:34:38.056Z,53.93
2022-12-20T14:37:32.213Z,55.37
2022-12-20T14:40:24.460Z,58.13
2022-12-20T14:43:17.418Z,54.70
2022-12-20T14:46:17.067Z,53.43
2022-12-20T14:49:23.733Z,44.23
2022-12-20T14:52:16.817Z,57.10
2022-12-20T14:55:10.546Z,57.13
2022-12-20T14:58:01.919Z,55.67
2022-12-20T15:00:58.994Z,58.53
2022-12-20T15:03:52.876Z,59.27
2022-12-20T15:06:45.883Z,58.00
2022-12-20T15:09:35.138Z,64.33
2022-12-20T15:12:24.323Z,61.50
2022-12-20T15:15:31.232Z,66.07
2022-12-20T15:18:22.166Z,66.53
2022-12-20T15:21:16.911Z,78.77
2022-12-20T15:24:11.825Z,71.50
2022-12-20T15:27:00.753Z,66.30
2022-12-20T15:29:50.544Z,64.27
2022-12-20T15:32:54.468Z,73.60
2022-12-20T15:35:44.911Z,72.63
2022-12-20T15:39:10.589Z,73.37
2022-12-20T15:41:44.766Z,66.57
2022-12-20T15:44:36.033Z,80.77
2022-12-20T15:47:25.056Z,77.00
2022-12-20T15:50:15.885Z,73.57
2022-12-20T15:53:04.794Z,75.20
2022-12-20T15:55:55.325Z,69.07
2022-12-20T15:58:44.431Z,69.07
2022-12-20T16:01:40.677Z,70.60
2022-12-20T16:04:29.774Z,59.47
2022-12-20T16:07:20.996Z,58.53
2022-12-20T16:10:14.618Z,60.20
2022-12-20T16:13:03.437Z,57.10
2022-12-20T16:15:52.820Z,59.37
2022-12-20T16:18:42.028Z,57.67
2022-12-20T16:21:34.842Z,63.43
2022-12-20T16:24:25.387Z,62.93
2022-12-20T16:27:14.765Z,63.07
2022-12-20T16:30:04.039Z,65.97
2022-12-20T16:32:53.096Z,60.77
2022-12-20T16:35:42.420Z,65.67
2022-12-20T16:38:31.480Z,66.47
2022-12-20T16:41:23.272Z,64.37
2022-12-20T16:44:16.158Z,65.67
2022-12-20T16:47:07.690Z,68.97
2022-12-20T16:49:56.747Z,72.73
2022-12-20T16:52:46.196Z,67.27
2022-12-20T16:55:39.860Z,63.83
2022-12-20T16:59:00.046Z,61.97
2022-12-20T17:01:45.425Z,64.30
2022-12-20T17:04:35.408Z,59.23
2022-12-20T17:07:24.036Z,61.37
2022-12-20T17:10:13.614Z,53.67
2022-12-20T17:13:02.633Z,58.43
2022-12-20T17:15:53.455Z,56.23
2022-12-20T17:18:42.910Z,51.67
2022-12-20T17:24:43.357Z,57.07
2022-12-20T17:27:32.332Z,52.97
2022-12-20T17:30:21.903Z,49.37
2022-12-20T17:33:16.510Z,48.93
2022-12-20T17:36:05.846Z,47.10
2022-12-20T17:38:55.785Z,46.63
2022-12-20T17:41:46.141Z,44.93
2022-12-20T17:44:34.831Z,31.20
2022-12-20T17:47:24.110Z,55.30
2022-12-20T17:50:15.811Z,50.97
2022-12-20T17:53:04.589Z,50.33
2022-12-20T17:55:53.901Z,50.07
2022-12-20T17:58:42.859Z,51.90
2022-12-20T18:01:34.229Z,69.93
2022-12-20T18:04:23.512Z,79.07
2022-12-20T18:07:14.027Z,63.83
2022-12-20T18:10:03.129Z,70.00
2022-12-20T18:12:52.905Z,58.27
2022-12-20T18:15:42.437Z,55.57
2022-12-20T18:18:36.876Z,57.90
2022-12-20T18:21:28.332Z,51.30
2022-12-20T18:24:20.754Z,52.63
2022-12-20T18:27:09.972Z,52.53
2022-12-20T18:29:58.797Z,52.03
2022-12-20T18:32:48.079Z,51.13
2022-12-20T18:35:36.943Z,59.93
2022-12-20T18:38:26.717Z,64.73
2022-12-20T18:41:19.378Z,62.07
2022-12-20T18:44:09.155Z,64.43
2022-12-20T18:46:59.163Z,61.13
2022-12-20T18:49:48.322Z,62.70
2022-12-20T18:52:38.805Z,65.30
2022-12-20T18:55:28.562Z,61.27
2022-12-20T18:58:18.925Z,58.37
2022-12-20T19:01:12.072Z,64.07
2022-12-20T19:04:02.925Z,63.70
2022-12-20T19:06:51.862Z,60.50
2022-12-20T19:09:40.468Z,59.57
2022-12-20T19:12:29.397Z,59.50
2022-12-20T19:15:19.369Z,59.33
2022-12-20T19:18:08.210Z,59.43
2022-12-20T19:20:57.614Z,64.77
2022-12-20T19:23:51.320Z,59.60
2022-12-20T19:26:40.672Z,62.10
2022-12-20T19:29:29.321Z,56.93
2022-12-20T19:32:20.169Z,60.83
2022-12-20T19:35:45.145Z,55.83
2022-12-20T19:38:18.722Z,54.27
2022-12-20T19:41:08.321Z,56.60
2022-12-20T19:43:58.068Z,58.50
2022-12-20T19:46:47.041Z,64.20
2022-12-20T19:49:37.541Z,61.27
2022-12-20T19:52:28.699Z,56.50
2022-12-20T19:55:18.133Z,58.97
2022-12-20T19:58:07.200Z,58.90
2022-12-20T20:00:56.605Z,59.33
2022-12-20T20:03:46.601Z,56.03
2022-12-20T20:06:37.630Z,57.07
2022-12-20T20:09:27.446Z,54.90
2022-12-20T20:12:16.883Z,61.37
2022-12-20T20:15:06.910Z,56.33
2022-12-20T20:17:56.530Z,62.33
2022-12-20T20:20:45.917Z,63.33
2022-12-20T20:23:37.750Z,57.57
2022-12-20T20:26:29.327Z,54.97
2022-12-20T20:29:18.173Z,52.10
2022-12-20T20:32:08.187Z,49.37
2022-12-20T20:34:57.092Z,52.27
2022-12-20T20:37:46.517Z,49.00
2022-12-20T20:40:37.009Z,52.20
2022-12-20T20:43:27.275Z,55.10
2022-12-20T20:46:18.001Z,54.60
2022-12-20T20:49:07.499Z,54.13
2022-12-20T20:51:56.774Z,54.27
2022-12-20T20:54:46.231Z,51.93
2022-12-20T20:57:37.299Z,57.53
2022-12-20T21:00:26.705Z,55.37
2022-12-20T21:03:15.841Z,50.00
2022-12-20T21:09:15.620Z,47.90
2022-12-20T21:12:05.624Z,46.80
2022-12-20T21:15:21.286Z,47.57
2022-12-20T21:18:05.842Z,35.50
2022-12-20T21:20:55.402Z,37.03
2022-12-20T21:23:47.087Z,30.87
2022-12-20T21:26:35.702Z,24.10
2022-12-20T21:29:25.008Z,29.50
2022-12-20T21:32:15.567Z,32.17
2022-12-20T21:35:04.723Z,25.43
2022-12-20T21:37:53.968Z,28.77
2022-12-20T21:40:42.945Z,31.97
2022-12-20T21:43:32.939Z,22.70
2022-12-20T21:46:21.849Z,26.53
2022-12-20T21:49:12.188Z,26.50
2022-12-20T21:52:01.263Z,29.87
2022-12-20T21:54:50.276Z,27.83
2022-12-20T21:57:39.615Z,28.30
2022-12-20T22:00:28.873Z,26.53
2022-12-20T22:03:17.730Z,26.90
2022-12-20T22:06:09.621Z,31.43
2022-12-20T22:08:59.578Z,29.87
2022-12-20T22:11:49.688Z,23.20
2022-12-20T22:14:38.841Z,24.60
2022-12-20T22:17:29.076Z,22.40
2022-12-20T22:20:18.727Z,27.40
2022-12-20T22:23:09.114Z,29.70
2022-12-20T22:25:58.214Z,30.50
2022-12-20T22:28:49.132Z,27.17
2022-12-20T22:31:38.446Z,27.20
2022-12-20T22:34:27.772Z,29.10
2022-12-20T22:37:16.741Z,21.27
2022-12-20T22:40:09.105Z,24.40
2022-12-20T22:42:58.104Z,28.90
2022-12-20T22:49:01.477Z,23.27
2022-12-20T22:52:05.914Z,20.93
2022-12-20T22:54:56.611Z,23.53
2022-12-20T22:57:48.174Z,26.57
2022-12-20T23:00:37.188Z,32.50
2022-12-20T23:03:26.563Z,32.80
2022-12-20T23:06:17.192Z,22.30
2022-12-20T23:09:06.001Z,19.07
2022-12-20T23:12:12.156Z,23.97
2022-12-20T23:15:19.871Z,22.70
2022-12-20T23:18:08.883Z,24.23
2022-12-20T23:21:15.251Z,25.10
2022-12-20T23:24:04.205Z,24.73
2022-12-20T23:26:52.876Z,22.13
2022-12-20T23:29:42.693Z,23.40
2022-12-20T23:32:33.362Z,24.37
2022-12-20T23:35:22.849Z,22.93
2022-12-20T23:38:12.404Z,26.13
2022-12-20T23:41:01.727Z,22.70
2022-12-20T23:43:50.714Z,22.17
2022-12-20T23:46:40.257Z,27.73
2022-12-20T23:49:30.707Z,26.60
2022-12-20T23:52:19.774Z,33.37
2022-12-20T23:55:09.749Z,29.77
2022-12-20T23:57:58.967Z,24.37
